sensor_id;sensor_type;location;lat;lon;timestamp;P1;durP1;ratioP1;P2;durP2;ratioP2
78346;SDS011;67803;41.330;69.282;2023-04-03T00:00:06;76.30;;;41.25;;
78346;SDS011;67803;41.330;69.282;2023-04-03T00:02:37;71.95;;;39.95;;
78346;SDS011;67803;41.330;69.282;2023-04-03T00:05:08;74.03;;;39.85;;
78346;SDS011;67803;41.330;69.282;2023-04-03T00:07:38;74.28;;;40.55;;
78346;SDS011;67803;41.330;69.282;2023-04-03T00:10:09;77.30;;;41.00;;
78346;SDS011;67803;41.330;69.282;2023-04-03T00:12:39;75.47;;;39.92;;
78346;SDS011;67803;41.330;69.282;2023-04-03T00:15:10;70.15;;;39.95;;
78346;SDS011;67803;41.330;69.282;2023-04-03T00:17:40;72.53;;;40.58;;
78346;SDS011;67803;41.330;69.282;2023-04-03T00:20:11;72.05;;;39.60;;
78346;SDS011;67803;41.330;69.282;2023-04-03T00:22:41;70.88;;;40.85;;
78346;SDS011;67803;41.330;69.282;2023-04-03T00:25:12;68.40;;;40.03;;
78346;SDS011;67803;41.330;69.282;2023-04-03T00:27:43;72.72;;;39.58;;
78346;SDS011;67803;41.330;69.282;2023-04-03T00:30:14;70.78;;;39.45;;
78346;SDS011;67803;41.330;69.282;2023-04-03T00:32:47;71.95;;;40.50;;
78346;SDS011;67803;41.330;69.282;2023-04-03T00:35:18;72.68;;;38.80;;
78346;SDS011;67803;41.330;69.282;2023-04-03T00:37:53;70.28;;;38.42;;
78346;SDS011;67803;41.330;69.282;2023-04-03T00:40:24;68.43;;;38.47;;
78346;SDS011;67803;41.330;69.282;2023-04-03T00:42:56;67.70;;;37.05;;
78346;SDS011;67803;41.330;69.282;2023-04-03T00:45:34;63.65;;;37.25;;
78346;SDS011;67803;41.330;69.282;2023-04-03T00:48:06;66.68;;;37.75;;
78346;SDS011;67803;41.330;69.282;2023-04-03T00:50:37;64.78;;;36.42;;
78346;SDS011;67803;41.330;69.282;2023-04-03T00:53:10;64.63;;;37.15;;
78346;SDS011;67803;41.330;69.282;2023-04-03T00:55:42;60.30;;;34.60;;
78346;SDS011;67803;41.330;69.282;2023-04-03T00:58:13;62.10;;;35.33;;
78346;SDS011;67803;41.330;69.282;2023-04-03T01:00:46;61.22;;;35.25;;
78346;SDS011;67803;41.330;69.282;2023-04-03T01:03:18;61.97;;;35.53;;
78346;SDS011;67803;41.330;69.282;2023-04-03T01:05:48;69.25;;;35.83;;
78346;SDS011;67803;41.330;69.282;2023-04-03T01:08:19;67.95;;;36.03;;
78346;SDS011;67803;41.330;69.282;2023-04-03T01:10:50;68.60;;;35.20;;
78346;SDS011;67803;41.330;69.282;2023-04-03T01:13:25;58.92;;;33.95;;
78346;SDS011;67803;41.330;69.282;2023-04-03T01:15:56;63.00;;;34.83;;
78346;SDS011;67803;41.330;69.282;2023-04-03T01:18:27;60.72;;;34.03;;
78346;SDS011;67803;41.330;69.282;2023-04-03T01:24:11;61.53;;;34.28;;
78346;SDS011;67803;41.330;69.282;2023-04-03T01:26:22;61.03;;;33.92;;
78346;SDS011;67803;41.330;69.282;2023-04-03T01:28:53;61.83;;;33.83;;
78346;SDS011;67803;41.330;69.282;2023-04-03T01:31:46;67.90;;;38.30;;
78346;SDS011;67803;41.330;69.282;2023-04-03T01:34:15;63.78;;;35.05;;
78346;SDS011;67803;41.330;69.282;2023-04-03T01:36:45;70.30;;;35.92;;
78346;SDS011;67803;41.330;69.282;2023-04-03T01:39:16;67.60;;;35.00;;
78346;SDS011;67803;41.330;69.282;2023-04-03T01:41:47;64.70;;;35.30;;
78346;SDS011;67803;41.330;69.282;2023-04-03T01:44:18;68.53;;;35.60;;
78346;SDS011;67803;41.330;69.282;2023-04-03T01:46:48;67.57;;;35.33;;
78346;SDS011;67803;41.330;69.282;2023-04-03T01:49:19;60.15;;;35.00;;
78346;SDS011;67803;41.330;69.282;2023-04-03T01:51:49;61.30;;;33.72;;
78346;SDS011;67803;41.330;69.282;2023-04-03T01:54:20;65.57;;;35.45;;
78346;SDS011;67803;41.330;69.282;2023-04-03T01:56:51;66.25;;;35.10;;
78346;SDS011;67803;41.330;69.282;2023-04-03T01:59:21;66.57;;;35.65;;
78346;SDS011;67803;41.330;69.282;2023-04-03T02:01:52;67.15;;;35.92;;
78346;SDS011;67803;41.330;69.282;2023-04-03T02:04:22;65.30;;;36.67;;
78346;SDS011;67803;41.330;69.282;2023-04-03T02:06:53;61.00;;;36.80;;
78346;SDS011;67803;41.330;69.282;2023-04-03T02:09:23;56.75;;;32.85;;
78346;SDS011;67803;41.330;69.282;2023-04-03T02:11:54;54.58;;;30.70;;
78346;SDS011;67803;41.330;69.282;2023-04-03T02:14:25;56.05;;;32.72;;
78346;SDS011;67803;41.330;69.282;2023-04-03T02:16:57;62.40;;;34.47;;
78346;SDS011;67803;41.330;69.282;2023-04-03T02:19:27;67.68;;;37.20;;
78346;SDS011;67803;41.330;69.282;2023-04-03T02:21:58;69.60;;;38.40;;
78346;SDS011;67803;41.330;69.282;2023-04-03T02:24:29;74.18;;;38.25;;
78346;SDS011;67803;41.330;69.282;2023-04-03T02:26:59;63.83;;;35.22;;
78346;SDS011;67803;41.330;69.282;2023-04-03T02:29:30;67.07;;;37.88;;
78346;SDS011;67803;41.330;69.282;2023-04-03T02:32:00;66.05;;;37.42;;
78346;SDS011;67803;41.330;69.282;2023-04-03T02:34:31;71.45;;;38.40;;
78346;SDS011;67803;41.330;69.282;2023-04-03T02:37:01;67.53;;;38.67;;
78346;SDS011;67803;41.330;69.282;2023-04-03T02:39:32;71.53;;;40.00;;
78346;SDS011;67803;41.330;69.282;2023-04-03T02:42:03;64.68;;;38.38;;
78346;SDS011;67803;41.330;69.282;2023-04-03T02:44:33;60.33;;;36.08;;
78346;SDS011;67803;41.330;69.282;2023-04-03T02:47:04;72.55;;;39.72;;
78346;SDS011;67803;41.330;69.282;2023-04-03T02:49:35;60.45;;;36.17;;
78346;SDS011;67803;41.330;69.282;2023-04-03T02:52:05;65.22;;;37.13;;
78346;SDS011;67803;41.330;69.282;2023-04-03T02:54:36;61.33;;;35.67;;
78346;SDS011;67803;41.330;69.282;2023-04-03T02:57:07;56.92;;;34.72;;
78346;SDS011;67803;41.330;69.282;2023-04-03T02:59:40;61.33;;;36.25;;
78346;SDS011;67803;41.330;69.282;2023-04-03T03:02:10;59.30;;;35.00;;
78346;SDS011;67803;41.330;69.282;2023-04-03T03:04:41;67.28;;;38.83;;
78346;SDS011;67803;41.330;69.282;2023-04-03T03:07:12;53.72;;;32.78;;
78346;SDS011;67803;41.330;69.282;2023-04-03T03:09:43;61.40;;;36.75;;
78346;SDS011;67803;41.330;69.282;2023-04-03T03:12:13;61.55;;;36.40;;
78346;SDS011;67803;41.330;69.282;2023-04-03T03:14:44;56.63;;;35.45;;
78346;SDS011;67803;41.330;69.282;2023-04-03T03:17:15;54.33;;;32.05;;
78346;SDS011;67803;41.330;69.282;2023-04-03T03:19:47;51.88;;;30.90;;
78346;SDS011;67803;41.330;69.282;2023-04-03T03:22:18;52.08;;;32.53;;
78346;SDS011;67803;41.330;69.282;2023-04-03T03:24:49;56.63;;;34.05;;
78346;SDS011;67803;41.330;69.282;2023-04-03T03:27:19;46.47;;;31.13;;
78346;SDS011;67803;41.330;69.282;2023-04-03T03:29:50;42.05;;;28.33;;
78346;SDS011;67803;41.330;69.282;2023-04-03T03:32:20;39.88;;;26.88;;
78346;SDS011;67803;41.330;69.282;2023-04-03T03:34:51;43.75;;;27.30;;
78346;SDS011;67803;41.330;69.282;2023-04-03T03:37:21;48.03;;;29.38;;
78346;SDS011;67803;41.330;69.282;2023-04-03T03:39:52;45.15;;;30.20;;
78346;SDS011;67803;41.330;69.282;2023-04-03T03:42:22;45.47;;;27.15;;
78346;SDS011;67803;41.330;69.282;2023-04-03T03:44:53;39.85;;;26.25;;
78346;SDS011;67803;41.330;69.282;2023-04-03T03:47:23;42.72;;;28.15;;
78346;SDS011;67803;41.330;69.282;2023-04-03T03:49:54;47.65;;;29.10;;
78346;SDS011;67803;41.330;69.282;2023-04-03T03:52:25;45.95;;;29.42;;
78346;SDS011;67803;41.330;69.282;2023-04-03T03:54:56;47.15;;;29.60;;
78346;SDS011;67803;41.330;69.282;2023-04-03T03:57:26;48.20;;;29.60;;
78346;SDS011;67803;41.330;69.282;2023-04-03T03:59:58;45.83;;;29.90;;
78346;SDS011;67803;41.330;69.282;2023-04-03T04:02:29;51.60;;;30.20;;
78346;SDS011;67803;41.330;69.282;2023-04-03T04:05:00;54.00;;;35.13;;
78346;SDS011;67803;41.330;69.282;2023-04-03T04:07:30;54.17;;;34.55;;
78346;SDS011;67803;41.330;69.282;2023-04-03T04:10:01;56.95;;;35.50;;
78346;SDS011;67803;41.330;69.282;2023-04-03T04:12:32;57.25;;;36.35;;
78346;SDS011;67803;41.330;69.282;2023-04-03T04:15:02;56.65;;;38.25;;
78346;SDS011;67803;41.330;69.282;2023-04-03T04:17:33;67.82;;;40.53;;
78346;SDS011;67803;41.330;69.282;2023-04-03T04:20:05;62.83;;;40.67;;
78346;SDS011;67803;41.330;69.282;2023-04-03T04:22:36;63.80;;;41.97;;
78346;SDS011;67803;41.330;69.282;2023-04-03T04:25:07;55.22;;;35.30;;
78346;SDS011;67803;41.330;69.282;2023-04-03T04:27:38;66.85;;;37.78;;
78346;SDS011;67803;41.330;69.282;2023-04-03T04:30:09;57.78;;;35.95;;
78346;SDS011;67803;41.330;69.282;2023-04-03T04:32:40;64.18;;;39.03;;
78346;SDS011;67803;41.330;69.282;2023-04-03T04:35:10;63.20;;;38.00;;
78346;SDS011;67803;41.330;69.282;2023-04-03T04:37:41;64.93;;;39.65;;
78346;SDS011;67803;41.330;69.282;2023-04-03T04:40:12;63.00;;;39.40;;
78346;SDS011;67803;41.330;69.282;2023-04-03T04:42:42;70.93;;;41.92;;
78346;SDS011;67803;41.330;69.282;2023-04-03T04:45:14;62.40;;;39.63;;
78346;SDS011;67803;41.330;69.282;2023-04-03T04:47:45;70.90;;;44.08;;
78346;SDS011;67803;41.330;69.282;2023-04-03T04:50:15;62.03;;;39.72;;
78346;SDS011;67803;41.330;69.282;2023-04-03T04:52:46;72.30;;;44.85;;
78346;SDS011;67803;41.330;69.282;2023-04-03T04:55:16;64.68;;;38.95;;
78346;SDS011;67803;41.330;69.282;2023-04-03T04:57:47;60.92;;;38.35;;
78346;SDS011;67803;41.330;69.282;2023-04-03T05:00:18;56.17;;;37.38;;
78346;SDS011;67803;41.330;69.282;2023-04-03T05:02:48;58.45;;;37.67;;
78346;SDS011;67803;41.330;69.282;2023-04-03T05:05:19;66.18;;;37.30;;
78346;SDS011;67803;41.330;69.282;2023-04-03T05:07:50;59.97;;;38.30;;
78346;SDS011;67803;41.330;69.282;2023-04-03T05:10:20;67.25;;;43.05;;
78346;SDS011;67803;41.330;69.282;2023-04-03T05:12:51;56.55;;;36.22;;
78346;SDS011;67803;41.330;69.282;2023-04-03T05:15:21;57.00;;;36.08;;
78346;SDS011;67803;41.330;69.282;2023-04-03T05:17:52;55.38;;;35.58;;
78346;SDS011;67803;41.330;69.282;2023-04-03T05:20:22;58.10;;;37.70;;
78346;SDS011;67803;41.330;69.282;2023-04-03T05:22:53;59.92;;;36.35;;
78346;SDS011;67803;41.330;69.282;2023-04-03T05:25:23;54.63;;;34.47;;
78346;SDS011;67803;41.330;69.282;2023-04-03T05:27:54;55.08;;;38.42;;
78346;SDS011;67803;41.330;69.282;2023-04-03T05:30:25;50.20;;;34.67;;
78346;SDS011;67803;41.330;69.282;2023-04-03T05:32:55;51.28;;;33.17;;
78346;SDS011;67803;41.330;69.282;2023-04-03T05:35:26;54.42;;;34.90;;
78346;SDS011;67803;41.330;69.282;2023-04-03T05:37:57;52.55;;;34.53;;
78346;SDS011;67803;41.330;69.282;2023-04-03T05:40:27;49.20;;;33.75;;
78346;SDS011;67803;41.330;69.282;2023-04-03T05:42:58;53.08;;;36.47;;
78346;SDS011;67803;41.330;69.282;2023-04-03T05:45:28;55.75;;;32.28;;
78346;SDS011;67803;41.330;69.282;2023-04-03T05:47:59;49.17;;;31.63;;
78346;SDS011;67803;41.330;69.282;2023-04-03T05:50:30;50.70;;;30.77;;
78346;SDS011;67803;41.330;69.282;2023-04-03T05:53:01;50.10;;;30.73;;
78346;SDS011;67803;41.330;69.282;2023-04-03T05:55:32;51.60;;;31.80;;
78346;SDS011;67803;41.330;69.282;2023-04-03T05:58:03;44.97;;;29.60;;
78346;SDS011;67803;41.330;69.282;2023-04-03T06:00:33;44.70;;;30.00;;
78346;SDS011;67803;41.330;69.282;2023-04-03T06:03:04;45.30;;;30.10;;
78346;SDS011;67803;41.330;69.282;2023-04-03T06:05:35;45.78;;;29.83;;
78346;SDS011;67803;41.330;69.282;2023-04-03T06:08:06;41.45;;;28.85;;
78346;SDS011;67803;41.330;69.282;2023-04-03T06:10:36;38.13;;;26.25;;
78346;SDS011;67803;41.330;69.282;2023-04-03T06:13:07;40.40;;;26.13;;
78346;SDS011;67803;41.330;69.282;2023-04-03T06:15:38;40.47;;;27.60;;
78346;SDS011;67803;41.330;69.282;2023-04-03T06:18:09;45.17;;;27.75;;
78346;SDS011;67803;41.330;69.282;2023-04-03T06:20:40;40.97;;;25.92;;
78346;SDS011;67803;41.330;69.282;2023-04-03T06:23:11;41.30;;;26.48;;
78346;SDS011;67803;41.330;69.282;2023-04-03T06:25:42;39.13;;;27.10;;
78346;SDS011;67803;41.330;69.282;2023-04-03T06:28:12;45.83;;;28.33;;
78346;SDS011;67803;41.330;69.282;2023-04-03T06:30:43;41.47;;;29.30;;
78346;SDS011;67803;41.330;69.282;2023-04-03T06:33:13;45.95;;;30.35;;
78346;SDS011;67803;41.330;69.282;2023-04-03T06:35:44;45.13;;;29.10;;
78346;SDS011;67803;41.330;69.282;2023-04-03T06:38:15;38.78;;;28.50;;
78346;SDS011;67803;41.330;69.282;2023-04-03T06:40:46;42.65;;;27.83;;
78346;SDS011;67803;41.330;69.282;2023-04-03T06:43:17;44.47;;;28.63;;
78346;SDS011;67803;41.330;69.282;2023-04-03T06:45:47;37.55;;;27.45;;
78346;SDS011;67803;41.330;69.282;2023-04-03T06:48:18;40.17;;;26.70;;
78346;SDS011;67803;41.330;69.282;2023-04-03T06:50:48;38.92;;;26.80;;
78346;SDS011;67803;41.330;69.282;2023-04-03T06:53:19;40.50;;;27.67;;
78346;SDS011;67803;41.330;69.282;2023-04-03T06:55:50;45.08;;;30.65;;
78346;SDS011;67803;41.330;69.282;2023-04-03T06:58:20;47.33;;;31.73;;
78346;SDS011;67803;41.330;69.282;2023-04-03T07:00:52;48.30;;;30.50;;
78346;SDS011;67803;41.330;69.282;2023-04-03T07:03:22;43.22;;;31.55;;
78346;SDS011;67803;41.330;69.282;2023-04-03T07:05:53;46.20;;;33.50;;
78346;SDS011;67803;41.330;69.282;2023-04-03T07:08:24;48.78;;;32.25;;
78346;SDS011;67803;41.330;69.282;2023-04-03T07:10:56;44.72;;;30.98;;
78346;SDS011;67803;41.330;69.282;2023-04-03T07:13:26;47.38;;;32.30;;
78346;SDS011;67803;41.330;69.282;2023-04-03T07:15:57;36.47;;;26.30;;
78346;SDS011;67803;41.330;69.282;2023-04-03T07:18:28;35.58;;;25.95;;
78346;SDS011;67803;41.330;69.282;2023-04-03T07:20:59;39.28;;;27.52;;
78346;SDS011;67803;41.330;69.282;2023-04-03T07:23:29;40.20;;;26.55;;
78346;SDS011;67803;41.330;69.282;2023-04-03T07:26:00;39.67;;;26.58;;
78346;SDS011;67803;41.330;69.282;2023-04-03T07:28:31;38.17;;;27.08;;
78346;SDS011;67803;41.330;69.282;2023-04-03T07:31:03;31.00;;;25.52;;
78346;SDS011;67803;41.330;69.282;2023-04-03T07:33:35;38.30;;;26.13;;
78346;SDS011;67803;41.330;69.282;2023-04-03T07:36:06;37.25;;;28.95;;
78346;SDS011;67803;41.330;69.282;2023-04-03T07:38:37;33.25;;;24.25;;
78346;SDS011;67803;41.330;69.282;2023-04-03T07:41:10;35.42;;;25.58;;
78346;SDS011;67803;41.330;69.282;2023-04-03T07:43:41;35.63;;;25.42;;
78346;SDS011;67803;41.330;69.282;2023-04-03T07:46:12;38.35;;;28.27;;
78346;SDS011;67803;41.330;69.282;2023-04-03T07:48:43;37.95;;;26.35;;
78346;SDS011;67803;41.330;69.282;2023-04-03T07:51:13;31.58;;;25.63;;
78346;SDS011;67803;41.330;69.282;2023-04-03T07:53:44;39.10;;;28.15;;
78346;SDS011;67803;41.330;69.282;2023-04-03T07:56:16;42.80;;;29.30;;
78346;SDS011;67803;41.330;69.282;2023-04-03T07:58:47;39.03;;;29.52;;
78346;SDS011;67803;41.330;69.282;2023-04-03T08:01:17;36.58;;;28.67;;
78346;SDS011;67803;41.330;69.282;2023-04-03T08:03:48;38.80;;;28.08;;
78346;SDS011;67803;41.330;69.282;2023-04-03T08:06:18;35.17;;;27.38;;
78346;SDS011;67803;41.330;69.282;2023-04-03T08:08:49;40.63;;;27.35;;
78346;SDS011;67803;41.330;69.282;2023-04-03T08:11:19;35.35;;;26.25;;
78346;SDS011;67803;41.330;69.282;2023-04-03T08:13:51;38.47;;;28.63;;
78346;SDS011;67803;41.330;69.282;2023-04-03T08:16:22;36.67;;;26.80;;
78346;SDS011;67803;41.330;69.282;2023-04-03T08:18:55;36.58;;;24.42;;
78346;SDS011;67803;41.330;69.282;2023-04-03T08:21:26;34.63;;;25.08;;
78346;SDS011;67803;41.330;69.282;2023-04-03T08:23:56;32.00;;;23.95;;
78346;SDS011;67803;41.330;69.282;2023-04-03T08:26:27;34.85;;;25.70;;
78346;SDS011;67803;41.330;69.282;2023-04-03T08:28:58;42.42;;;31.45;;
78346;SDS011;67803;41.330;69.282;2023-04-03T08:31:28;36.83;;;28.50;;
78346;SDS011;67803;41.330;69.282;2023-04-03T08:33:59;46.60;;;28.85;;
78346;SDS011;67803;41.330;69.282;2023-04-03T08:36:29;41.63;;;27.05;;
78346;SDS011;67803;41.330;69.282;2023-04-03T08:39:00;34.63;;;27.33;;
78346;SDS011;67803;41.330;69.282;2023-04-03T08:41:34;37.83;;;24.17;;
78346;SDS011;67803;41.330;69.282;2023-04-03T08:46:43;36.35;;;24.65;;
78346;SDS011;67803;41.330;69.282;2023-04-03T08:49:24;32.28;;;24.95;;
78346;SDS011;67803;41.330;69.282;2023-04-03T08:51:57;49.50;;;28.00;;
78346;SDS011;67803;41.330;69.282;2023-04-03T08:55:03;34.90;;;26.92;;
78346;SDS011;67803;41.330;69.282;2023-04-03T08:59:58;40.53;;;26.73;;
78346;SDS011;67803;41.330;69.282;2023-04-03T09:02:43;35.00;;;25.40;;
78346;SDS011;67803;41.330;69.282;2023-04-03T09:05:16;32.38;;;23.65;;
78346;SDS011;67803;41.330;69.282;2023-04-03T09:07:58;30.98;;;23.25;;
78346;SDS011;67803;41.330;69.282;2023-04-03T09:10:32;34.40;;;24.02;;
78346;SDS011;67803;41.330;69.282;2023-04-03T09:15:57;29.95;;;20.75;;
78346;SDS011;67803;41.330;69.282;2023-04-03T09:18:30;27.50;;;21.05;;
78346;SDS011;67803;41.330;69.282;2023-04-03T09:23:55;29.45;;;20.10;;
78346;SDS011;67803;41.330;69.282;2023-04-03T09:28:58;28.45;;;19.83;;
78346;SDS011;67803;41.330;69.282;2023-04-03T09:31:40;21.02;;;17.33;;
78346;SDS011;67803;41.330;69.282;2023-04-03T09:36:49;26.50;;;15.75;;
78346;SDS011;67803;41.330;69.282;2023-04-03T09:39:22;20.10;;;13.68;;
78346;SDS011;67803;41.330;69.282;2023-04-03T09:44:31;17.13;;;10.68;;
78346;SDS011;67803;41.330;69.282;2023-04-03T09:47:44;15.48;;;9.95;;
78346;SDS011;67803;41.330;69.282;2023-04-03T09:52:46;16.00;;;8.27;;
78346;SDS011;67803;41.330;69.282;2023-04-03T09:55:19;18.58;;;7.88;;
78346;SDS011;67803;41.330;69.282;2023-04-03T09:57:57;18.25;;;6.70;;
78346;SDS011;67803;41.330;69.282;2023-04-03T10:00:34;18.65;;;6.13;;
78346;SDS011;67803;41.330;69.282;2023-04-03T10:03:06;18.77;;;5.53;;
78346;SDS011;67803;41.330;69.282;2023-04-03T10:05:53;21.15;;;5.50;;
78346;SDS011;67803;41.330;69.282;2023-04-03T10:08:29;20.10;;;5.03;;
78346;SDS011;67803;41.330;69.282;2023-04-03T10:13:50;21.38;;;4.60;;
78346;SDS011;67803;41.330;69.282;2023-04-03T10:16:23;18.45;;;4.30;;
78346;SDS011;67803;41.330;69.282;2023-04-03T10:26:41;19.23;;;4.05;;
78346;SDS011;67803;41.330;69.282;2023-04-03T10:34:48;18.17;;;4.22;;
78346;SDS011;67803;41.330;69.282;2023-04-03T10:37:26;17.48;;;4.30;;
78346;SDS011;67803;41.330;69.282;2023-04-03T10:39:59;19.88;;;4.43;;
78346;SDS011;67803;41.330;69.282;2023-04-03T10:45:21;17.70;;;3.90;;
78346;SDS011;67803;41.330;69.282;2023-04-03T10:58:04;19.88;;;3.97;;
78346;SDS011;67803;41.330;69.282;2023-04-03T11:00:45;21.08;;;4.85;;
78346;SDS011;67803;41.330;69.282;2023-04-03T11:03:32;17.77;;;3.88;;
78346;SDS011;67803;41.330;69.282;2023-04-03T11:06:05;21.48;;;4.80;;
78346;SDS011;67803;41.330;69.282;2023-04-03T11:08:42;16.95;;;4.45;;
78346;SDS011;67803;41.330;69.282;2023-04-03T11:11:16;22.63;;;4.30;;
78346;SDS011;67803;41.330;69.282;2023-04-03T11:19:54;14.88;;;4.20;;
78346;SDS011;67803;41.330;69.282;2023-04-03T11:22:34;15.15;;;4.32;;
78346;SDS011;67803;41.330;69.282;2023-04-03T11:27:42;15.70;;;3.80;;
78346;SDS011;67803;41.330;69.282;2023-04-03T11:33:12;18.92;;;4.70;;
78346;SDS011;67803;41.330;69.282;2023-04-03T11:35:46;15.75;;;4.32;;
78346;SDS011;67803;41.330;69.282;2023-04-03T11:38:19;18.85;;;4.43;;
78346;SDS011;67803;41.330;69.282;2023-04-03T11:40:53;18.52;;;3.90;;
78346;SDS011;67803;41.330;69.282;2023-04-03T11:43:27;20.52;;;3.95;;
78346;SDS011;67803;41.330;69.282;2023-04-03T11:46:00;20.73;;;3.65;;
78346;SDS011;67803;41.330;69.282;2023-04-03T11:53:50;20.63;;;3.53;;
78346;SDS011;67803;41.330;69.282;2023-04-03T12:04:14;17.17;;;3.63;;
78346;SDS011;67803;41.330;69.282;2023-04-03T12:09:24;16.92;;;3.55;;
78346;SDS011;67803;41.330;69.282;2023-04-03T12:11:56;28.60;;;4.82;;
78346;SDS011;67803;41.330;69.282;2023-04-03T12:14:27;18.92;;;3.97;;
78346;SDS011;67803;41.330;69.282;2023-04-03T12:16:58;14.63;;;3.88;;
78346;SDS011;67803;41.330;69.282;2023-04-03T12:24:32;18.52;;;3.47;;
78346;SDS011;67803;41.330;69.282;2023-04-03T12:27:05;16.27;;;3.22;;
78346;SDS011;67803;41.330;69.282;2023-04-03T12:29:39;12.98;;;3.10;;
78346;SDS011;67803;41.330;69.282;2023-04-03T12:40:17;20.73;;;4.55;;
78346;SDS011;67803;41.330;69.282;2023-04-03T12:45:24;15.30;;;3.95;;
78346;SDS011;67803;41.330;69.282;2023-04-03T12:47:55;17.40;;;4.22;;
78346;SDS011;67803;41.330;69.282;2023-04-03T12:50:28;20.83;;;3.95;;
78346;SDS011;67803;41.330;69.282;2023-04-03T12:53:05;19.40;;;3.95;;
78346;SDS011;67803;41.330;69.282;2023-04-03T12:55:36;27.15;;;4.80;;
78346;SDS011;67803;41.330;69.282;2023-04-03T12:58:14;16.95;;;3.97;;
78346;SDS011;67803;41.330;69.282;2023-04-03T13:00:45;21.30;;;5.40;;
78346;SDS011;67803;41.330;69.282;2023-04-03T13:03:21;15.77;;;3.83;;
78346;SDS011;67803;41.330;69.282;2023-04-03T13:05:54;28.83;;;5.70;;
78346;SDS011;67803;41.330;69.282;2023-04-03T13:08:25;21.65;;;5.78;;
78346;SDS011;67803;41.330;69.282;2023-04-03T13:10:58;22.98;;;5.22;;
78346;SDS011;67803;41.330;69.282;2023-04-03T13:13:30;19.25;;;5.53;;
78346;SDS011;67803;41.330;69.282;2023-04-03T13:16:07;18.02;;;5.28;;
78346;SDS011;67803;41.330;69.282;2023-04-03T13:18:39;20.50;;;4.63;;
78346;SDS011;67803;41.330;69.282;2023-04-03T13:21:17;17.92;;;4.68;;
78346;SDS011;67803;41.330;69.282;2023-04-03T13:23:49;23.20;;;5.80;;
78346;SDS011;67803;41.330;69.282;2023-04-03T13:26:21;34.03;;;7.25;;
78346;SDS011;67803;41.330;69.282;2023-04-03T13:28:52;28.55;;;6.13;;
78346;SDS011;67803;41.330;69.282;2023-04-03T13:31:25;18.58;;;5.35;;
78346;SDS011;67803;41.330;69.282;2023-04-03T13:33:57;20.45;;;5.82;;
78346;SDS011;67803;41.330;69.282;2023-04-03T13:36:36;30.63;;;6.50;;
78346;SDS011;67803;41.330;69.282;2023-04-03T13:41:42;20.35;;;5.38;;
78346;SDS011;67803;41.330;69.282;2023-04-03T13:44:17;28.30;;;5.45;;
78346;SDS011;67803;41.330;69.282;2023-04-03T13:49:32;29.10;;;4.97;;
78346;SDS011;67803;41.330;69.282;2023-04-03T13:52:22;25.95;;;5.40;;
78346;SDS011;67803;41.330;69.282;2023-04-03T13:55:00;25.95;;;6.50;;
78346;SDS011;67803;41.330;69.282;2023-04-03T13:57:31;14.48;;;4.95;;
78346;SDS011;67803;41.330;69.282;2023-04-03T14:00:18;21.30;;;5.68;;
78346;SDS011;67803;41.330;69.282;2023-04-03T14:02:49;20.65;;;7.35;;
78346;SDS011;67803;41.330;69.282;2023-04-03T14:05:20;25.20;;;6.90;;
78346;SDS011;67803;41.330;69.282;2023-04-03T14:07:51;16.63;;;6.20;;
78346;SDS011;67803;41.330;69.282;2023-04-03T14:10:22;17.63;;;6.50;;
78346;SDS011;67803;41.330;69.282;2023-04-03T14:12:52;21.23;;;6.47;;
78346;SDS011;67803;41.330;69.282;2023-04-03T14:15:24;32.38;;;7.35;;
78346;SDS011;67803;41.330;69.282;2023-04-03T14:17:55;20.38;;;6.28;;
78346;SDS011;67803;41.330;69.282;2023-04-03T14:20:26;13.50;;;5.30;;
78346;SDS011;67803;41.330;69.282;2023-04-03T14:22:57;17.60;;;6.65;;
78346;SDS011;67803;41.330;69.282;2023-04-03T14:25:28;25.27;;;8.00;;
78346;SDS011;67803;41.330;69.282;2023-04-03T14:27:59;22.10;;;6.68;;
78346;SDS011;67803;41.330;69.282;2023-04-03T14:30:32;19.17;;;7.20;;
78346;SDS011;67803;41.330;69.282;2023-04-03T14:33:02;16.60;;;5.63;;
78346;SDS011;67803;41.330;69.282;2023-04-03T14:35:33;22.90;;;8.38;;
78346;SDS011;67803;41.330;69.282;2023-04-03T14:38:05;17.85;;;7.28;;
78346;SDS011;67803;41.330;69.282;2023-04-03T14:40:39;18.92;;;6.63;;
78346;SDS011;67803;41.330;69.282;2023-04-03T14:43:10;18.70;;;6.93;;
78346;SDS011;67803;41.330;69.282;2023-04-03T14:45:42;25.45;;;7.10;;
78346;SDS011;67803;41.330;69.282;2023-04-03T14:48:15;20.77;;;6.43;;
78346;SDS011;67803;41.330;69.282;2023-04-03T14:50:50;20.65;;;7.70;;
78346;SDS011;67803;41.330;69.282;2023-04-03T14:53:21;16.60;;;6.50;;
78346;SDS011;67803;41.330;69.282;2023-04-03T14:58:26;23.67;;;7.60;;
78346;SDS011;67803;41.330;69.282;2023-04-03T15:00:57;21.88;;;6.95;;
78346;SDS011;67803;41.330;69.282;2023-04-03T15:03:28;23.05;;;7.63;;
78346;SDS011;67803;41.330;69.282;2023-04-03T15:05:58;23.45;;;9.35;;
78346;SDS011;67803;41.330;69.282;2023-04-03T15:08:29;23.58;;;7.80;;
78346;SDS011;67803;41.330;69.282;2023-04-03T15:11:00;21.38;;;7.60;;
78346;SDS011;67803;41.330;69.282;2023-04-03T15:13:31;23.33;;;7.68;;
78346;SDS011;67803;41.330;69.282;2023-04-03T15:16:01;24.08;;;7.93;;
78346;SDS011;67803;41.330;69.282;2023-04-03T15:18:36;24.90;;;8.07;;
78346;SDS011;67803;41.330;69.282;2023-04-03T15:21:07;20.98;;;7.28;;
78346;SDS011;67803;41.330;69.282;2023-04-03T15:23:38;18.73;;;7.80;;
78346;SDS011;67803;41.330;69.282;2023-04-03T15:26:10;18.75;;;7.22;;
78346;SDS011;67803;41.330;69.282;2023-04-03T15:28:41;20.88;;;8.65;;
78346;SDS011;67803;41.330;69.282;2023-04-03T15:31:12;20.83;;;8.10;;
78346;SDS011;67803;41.330;69.282;2023-04-03T15:33:43;20.65;;;8.27;;
78346;SDS011;67803;41.330;69.282;2023-04-03T15:36:14;29.17;;;8.63;;
78346;SDS011;67803;41.330;69.282;2023-04-03T15:38:44;23.92;;;8.45;;
78346;SDS011;67803;41.330;69.282;2023-04-03T15:41:15;20.33;;;8.25;;
78346;SDS011;67803;41.330;69.282;2023-04-03T15:43:45;20.73;;;7.38;;
78346;SDS011;67803;41.330;69.282;2023-04-03T15:46:16;21.92;;;8.57;;
78346;SDS011;67803;41.330;69.282;2023-04-03T15:48:46;17.15;;;8.35;;
78346;SDS011;67803;41.330;69.282;2023-04-03T15:51:17;17.30;;;7.28;;
78346;SDS011;67803;41.330;69.282;2023-04-03T15:53:47;21.00;;;8.20;;
78346;SDS011;67803;41.330;69.282;2023-04-03T15:56:18;21.92;;;7.93;;
78346;SDS011;67803;41.330;69.282;2023-04-03T15:58:49;19.80;;;8.07;;
78346;SDS011;67803;41.330;69.282;2023-04-03T16:01:19;21.45;;;9.18;;
78346;SDS011;67803;41.330;69.282;2023-04-03T16:03:50;19.70;;;8.43;;
78346;SDS011;67803;41.330;69.282;2023-04-03T16:06:21;24.13;;;9.43;;
78346;SDS011;67803;41.330;69.282;2023-04-03T16:08:51;22.58;;;8.77;;
78346;SDS011;67803;41.330;69.282;2023-04-03T16:11:27;17.05;;;8.45;;
78346;SDS011;67803;41.330;69.282;2023-04-03T16:13:57;20.33;;;9.27;;
78346;SDS011;67803;41.330;69.282;2023-04-03T16:16:28;26.90;;;9.65;;
78346;SDS011;67803;41.330;69.282;2023-04-03T16:18:59;22.38;;;8.55;;
78346;SDS011;67803;41.330;69.282;2023-04-03T16:21:31;26.95;;;9.50;;
78346;SDS011;67803;41.330;69.282;2023-04-03T16:24:02;25.65;;;8.00;;